createdAt,value
2022-08-04T00:00:08.129Z,5.47
2022-08-04T00:15:15.086Z,5.85
2022-08-04T00:30:18.686Z,6.15
2022-08-04T00:45:23.541Z,6.28
2022-08-04T01:00:26.055Z,7.05
2022-08-04T01:16:00.685Z,7.13
2022-08-04T01:31:33.511Z,6.93
2022-08-04T01:46:36.407Z,7.82
2022-08-04T02:01:38.727Z,9.97
2022-08-04T02:16:52.992Z,14.60
2022-08-04T02:32:02.233Z,11.05
2022-08-04T02:47:05.728Z,14.90
2022-08-04T03:02:08.052Z,11.90
2022-08-04T03:17:32.306Z,12.37
2022-08-04T03:33:01.940Z,14.85
2022-08-04T03:48:17.400Z,14.45
2022-08-04T04:03:52.493Z,16.20
2022-08-04T04:19:27.908Z,18.88
2022-08-04T04:35:02.042Z,15.48
2022-08-04T04:50:12.657Z,14.85
2022-08-04T05:05:35.890Z,17.15
2022-08-04T05:20:52.055Z,15.10
2022-08-04T05:36:23.447Z,14.48
2022-08-04T05:51:21.626Z,24.42
2022-08-04T06:06:23.974Z,15.63
2022-08-04T06:21:32.500Z,15.32
2022-08-04T06:36:39.332Z,15.35
2022-08-04T06:51:49.343Z,11.60
2022-08-04T07:06:51.945Z,6.75
2022-08-04T07:22:17.735Z,10.00
2022-08-04T07:37:17.221Z,5.72
2022-08-04T07:52:21.331Z,6.47
2022-08-04T08:07:24.027Z,6.00
2022-08-04T08:22:26.783Z,6.00
2022-08-04T08:37:59.332Z,7.18
2022-08-04T08:53:32.407Z,4.90
2022-08-04T09:24:36.227Z,4.25
2022-08-04T09:39:54.330Z,3.55
2022-08-04T09:55:05.858Z,4.88
2022-08-04T10:10:30.658Z,4.67
2022-08-04T10:26:07.715Z,4.28
2022-08-04T10:41:14.046Z,3.60
2022-08-04T10:56:24.059Z,3.60
2022-08-04T11:12:00.472Z,3.63
2022-08-04T11:26:58.310Z,4.68
2022-08-04T11:42:21.223Z,3.15
2022-08-04T11:57:35.631Z,3.65
2022-08-04T12:12:46.722Z,4.30
2022-08-04T12:28:17.594Z,3.77
2022-08-04T12:43:29.840Z,3.60
2022-08-04T12:58:42.381Z,4.57
2022-08-04T13:14:17.604Z,5.57
2022-08-04T13:30:00.228Z,4.90
2022-08-04T13:44:53.782Z,5.13
2022-08-04T14:00:00.393Z,4.75
2022-08-04T14:15:03.074Z,5.32
2022-08-04T14:30:05.411Z,5.20
2022-08-04T14:45:09.407Z,5.03
2022-08-04T15:00:15.802Z,5.22
2022-08-04T15:15:36.619Z,5.38
2022-08-04T15:30:40.394Z,5.57
2022-08-04T15:46:02.411Z,6.80
2022-08-04T16:01:18.052Z,5.90
2022-08-04T16:16:28.902Z,7.97
2022-08-04T16:31:34.331Z,7.75
2022-08-04T16:47:21.564Z,9.18
2022-08-04T17:02:10.092Z,11.30
2022-08-04T17:17:12.490Z,11.88
2022-08-04T17:32:17.063Z,12.95
2022-08-04T17:47:22.052Z,12.40
2022-08-04T18:02:32.603Z,13.00
2022-08-04T18:18:20.777Z,14.68
2022-08-04T18:33:39.825Z,14.10
2022-08-04T18:48:36.649Z,13.97
2022-08-04T19:03:41.212Z,13.93
2022-08-04T19:18:47.814Z,13.85
2022-08-04T19:33:59.246Z,14.32
2022-08-04T19:49:06.574Z,15.65
2022-08-04T20:04:28.676Z,17.77
2022-08-04T20:19:33.356Z,17.48
2022-08-04T20:34:37.569Z,16.40
2022-08-04T20:49:45.252Z,15.65
2022-08-04T21:04:48.745Z,13.93
2022-08-04T21:19:51.118Z,12.02
2022-08-04T21:34:54.534Z,9.67
2022-08-04T21:49:57.499Z,10.40
2022-08-04T22:04:59.446Z,10.68
2022-08-04T22:20:02.290Z,10.90
2022-08-04T22:50:27.532Z,11.45
2022-08-04T23:05:35.729Z,11.15
2022-08-04T23:20:39.414Z,10.90
2022-08-04T23:35:41.821Z,9.43
2022-08-04T23:50:43.714Z,11.40
